createdAt,value
2023-05-24T00:00:38.310Z,10.73
2023-05-24T00:03:07.681Z,10.63
2023-05-24T00:05:38.648Z,8.23
2023-05-24T00:08:07.065Z,11.02
2023-05-24T00:10:35.407Z,12.75
2023-05-24T00:13:03.754Z,12.35
2023-05-24T00:15:32.056Z,10.48
2023-05-24T00:18:00.470Z,11.15
2023-05-24T00:20:28.841Z,9.77
2023-05-24T00:22:57.213Z,12.35
2023-05-24T00:25:25.628Z,12.68
2023-05-24T00:27:53.935Z,13.95
2023-05-24T00:30:22.274Z,12.15
2023-05-24T00:32:50.563Z,11.80
2023-05-24T00:35:18.894Z,8.98
2023-05-24T00:37:47.353Z,10.25
2023-05-24T00:40:15.747Z,12.23
2023-05-24T00:42:44.052Z,8.15
2023-05-24T00:45:12.563Z,9.73
2023-05-24T00:47:41.227Z,12.25
2023-05-24T00:50:13.867Z,15.38
2023-05-24T00:52:46.329Z,13.25
2023-05-24T00:55:15.030Z,11.68
2023-05-24T00:57:43.737Z,12.15
2023-05-24T01:00:12.647Z,12.57
2023-05-24T01:02:41.189Z,12.65
2023-05-24T01:05:10.075Z,10.02
2023-05-24T01:08:10.793Z,12.80
2023-05-24T01:10:47.657Z,11.93
2023-05-24T01:13:26.058Z,12.23
2023-05-24T01:16:06.710Z,11.48
2023-05-24T01:18:40.196Z,12.35
2023-05-24T01:21:15.283Z,17.92
2023-05-24T01:23:51.927Z,16.65
2023-05-24T01:26:27.677Z,10.90
2023-05-24T01:28:56.456Z,15.60
2023-05-24T01:31:25.750Z,12.57
2023-05-24T01:33:54.338Z,17.38
2023-05-24T01:36:22.765Z,13.73
2023-05-24T01:38:53.013Z,15.50
2023-05-24T01:41:24.225Z,12.57
2023-05-24T01:44:14.932Z,15.90
2023-05-24T01:46:43.300Z,14.63
2023-05-24T01:49:43.489Z,11.52
2023-05-24T01:52:20.762Z,15.10
2023-05-24T01:54:53.796Z,13.07
2023-05-24T01:57:23.600Z,15.95
2023-05-24T01:59:53.623Z,16.67
2023-05-24T02:02:22.315Z,13.70
2023-05-24T02:04:51.141Z,14.45
2023-05-24T02:07:20.176Z,14.90
2023-05-24T02:09:48.548Z,12.27
2023-05-24T02:12:16.867Z,16.45
2023-05-24T02:14:45.130Z,17.70
2023-05-24T02:17:13.547Z,16.67
2023-05-24T02:19:41.989Z,14.60
2023-05-24T02:22:10.396Z,15.18
2023-05-24T02:24:38.728Z,12.52
2023-05-24T02:27:07.594Z,12.88
2023-05-24T02:29:36.024Z,14.55
2023-05-24T02:32:04.275Z,16.33
2023-05-24T02:34:32.902Z,13.82
2023-05-24T02:37:01.164Z,16.38
2023-05-24T02:39:29.544Z,11.38
2023-05-24T02:41:57.861Z,18.25
2023-05-24T02:44:26.161Z,14.98
2023-05-24T02:46:54.494Z,17.10
2023-05-24T02:49:22.726Z,14.20
2023-05-24T02:51:51.331Z,16.48
2023-05-24T02:54:19.726Z,20.35
2023-05-24T02:56:48.768Z,14.13
2023-05-24T02:59:17.133Z,16.77
2023-05-24T03:01:45.580Z,13.27
2023-05-24T03:04:13.838Z,14.07
2023-05-24T03:06:42.076Z,17.70
2023-05-24T03:09:10.293Z,11.70
2023-05-24T03:11:38.547Z,14.43
2023-05-24T03:14:07.659Z,16.00
2023-05-24T03:16:35.988Z,17.00
2023-05-24T03:19:06.494Z,17.55
2023-05-24T03:21:35.966Z,10.70
2023-05-24T03:24:04.294Z,13.82
2023-05-24T03:26:32.532Z,13.57
2023-05-24T03:29:00.750Z,11.73
2023-05-24T03:31:28.995Z,17.63
2023-05-24T03:33:57.429Z,18.25
2023-05-24T03:36:27.162Z,11.07
2023-05-24T03:38:55.975Z,13.88
2023-05-24T03:41:24.246Z,12.73
2023-05-24T03:43:53.816Z,13.40
2023-05-24T03:46:22.179Z,15.50
2023-05-24T03:48:50.863Z,13.48
2023-05-24T03:51:19.162Z,9.98
2023-05-24T03:53:47.379Z,18.42
2023-05-24T03:56:15.607Z,12.45
2023-05-24T03:58:43.872Z,11.40
2023-05-24T04:01:25.347Z,14.70
2023-05-24T04:03:58.205Z,14.00
2023-05-24T04:06:30.018Z,13.43
2023-05-24T04:09:00.106Z,13.02
2023-05-24T04:11:29.334Z,14.18
2023-05-24T04:13:58.481Z,13.13
2023-05-24T04:16:27.346Z,12.70
2023-05-24T04:18:58.935Z,15.45
2023-05-24T04:21:27.254Z,11.93
2023-05-24T04:23:56.785Z,15.90
2023-05-24T04:26:25.019Z,10.63
2023-05-24T04:28:53.391Z,12.85
2023-05-24T04:31:22.725Z,13.80
2023-05-24T04:33:51.446Z,11.05
2023-05-24T04:36:20.293Z,19.55
2023-05-24T04:38:48.521Z,14.52
2023-05-24T04:41:16.956Z,11.82
2023-05-24T04:43:45.809Z,13.38
2023-05-24T04:46:14.558Z,15.13
2023-05-24T04:48:43.049Z,13.98
2023-05-24T04:51:11.365Z,15.38
2023-05-24T04:53:39.741Z,17.05
2023-05-24T04:56:08.071Z,17.73
2023-05-24T04:58:38.121Z,17.48
2023-05-24T05:01:07.627Z,13.60
2023-05-24T05:03:36.037Z,17.33
2023-05-24T05:06:04.859Z,12.77
2023-05-24T05:08:33.448Z,12.18
2023-05-24T05:11:02.055Z,11.73
2023-05-24T05:13:30.296Z,12.88
2023-05-24T05:15:58.492Z,15.63
2023-05-24T05:18:26.741Z,14.90
2023-05-24T05:20:55.154Z,14.07
2023-05-24T05:23:23.389Z,15.25
2023-05-24T05:25:52.077Z,10.45
2023-05-24T05:28:20.344Z,11.25
2023-05-24T05:30:48.778Z,12.82
2023-05-24T05:33:17.309Z,13.07
2023-05-24T05:35:45.609Z,11.23
2023-05-24T05:38:14.181Z,12.80
2023-05-24T05:40:42.671Z,13.18
2023-05-24T05:43:11.253Z,16.80
2023-05-24T05:45:39.688Z,10.52
2023-05-24T05:48:08.136Z,12.45
2023-05-24T05:50:36.549Z,15.57
2023-05-24T05:53:04.785Z,13.82
2023-05-24T05:55:33.021Z,12.60
2023-05-24T05:58:01.393Z,14.32
2023-05-24T06:00:29.658Z,11.15
2023-05-24T06:02:58.014Z,16.00
2023-05-24T06:05:26.537Z,13.50
2023-05-24T06:07:54.904Z,15.77
2023-05-24T06:10:23.109Z,14.27
2023-05-24T06:12:51.884Z,14.63
2023-05-24T06:15:23.453Z,13.50
2023-05-24T06:17:53.508Z,10.93
2023-05-24T06:20:21.866Z,14.30
2023-05-24T06:22:51.665Z,18.40
2023-05-24T06:25:21.651Z,17.50
2023-05-24T06:27:50.075Z,15.18
2023-05-24T06:30:19.026Z,15.32
2023-05-24T06:32:47.410Z,13.60
2023-05-24T06:35:15.626Z,11.90
2023-05-24T06:37:44.489Z,14.18
2023-05-24T06:40:13.833Z,15.57
2023-05-24T06:42:42.179Z,15.38
2023-05-24T06:45:10.837Z,16.17
2023-05-24T06:47:39.198Z,15.30
2023-05-24T06:50:08.234Z,17.23
2023-05-24T06:52:36.756Z,15.45
2023-05-24T06:55:05.574Z,18.23
2023-05-24T06:57:33.794Z,17.70
2023-05-24T07:00:02.463Z,14.27
2023-05-24T07:02:30.749Z,13.75
2023-05-24T07:04:59.123Z,17.10
2023-05-24T07:07:27.668Z,14.07
2023-05-24T07:09:56.273Z,13.90
2023-05-24T07:12:24.621Z,16.83
2023-05-24T07:14:53.223Z,12.27
2023-05-24T07:17:22.022Z,11.32
2023-05-24T07:19:50.382Z,13.00
2023-05-24T07:22:18.789Z,16.58
2023-05-24T07:24:47.131Z,17.33
2023-05-24T07:27:15.382Z,15.98
2023-05-24T07:29:44.728Z,12.88
2023-05-24T07:32:14.610Z,17.10
2023-05-24T07:34:42.901Z,15.38
2023-05-24T07:37:11.316Z,15.18
2023-05-24T07:39:39.951Z,12.20
2023-05-24T07:42:08.312Z,12.60
2023-05-24T07:44:36.950Z,15.43
2023-05-24T07:47:05.367Z,14.93
2023-05-24T07:49:33.618Z,18.83
2023-05-24T07:52:01.951Z,11.75
2023-05-24T07:54:30.226Z,15.40
2023-05-24T07:56:58.663Z,15.90
2023-05-24T07:59:27.160Z,13.10
2023-05-24T08:01:55.428Z,14.80
2023-05-24T08:04:24.734Z,14.35
2023-05-24T08:06:53.126Z,11.95
2023-05-24T08:09:21.450Z,10.10
2023-05-24T08:11:49.672Z,12.43
2023-05-24T08:14:17.926Z,15.77
2023-05-24T08:16:46.301Z,13.20
2023-05-24T08:19:14.883Z,15.95
2023-05-24T08:21:43.334Z,14.20
2023-05-24T08:24:11.677Z,14.13
2023-05-24T08:26:39.958Z,14.55
2023-05-24T08:29:08.694Z,11.55
2023-05-24T08:31:37.065Z,14.82
2023-05-24T08:34:06.154Z,12.68
2023-05-24T08:36:34.391Z,9.35
2023-05-24T08:39:02.624Z,13.23
2023-05-24T08:41:33.478Z,13.15
2023-05-24T08:44:03.305Z,11.15
2023-05-24T08:46:32.575Z,14.77
2023-05-24T08:49:02.419Z,14.20
2023-05-24T08:51:34.605Z,12.70
2023-05-24T08:54:03.297Z,11.57
2023-05-24T08:56:32.366Z,12.70
2023-05-24T08:59:01.026Z,12.05
2023-05-24T09:01:32.285Z,13.07
2023-05-24T09:04:04.010Z,11.55
2023-05-24T09:06:33.416Z,13.88
2023-05-24T09:09:04.623Z,13.75
2023-05-24T09:11:34.285Z,11.30
2023-05-24T09:14:03.916Z,13.15
2023-05-24T09:16:32.757Z,15.02
2023-05-24T09:19:01.004Z,14.00
2023-05-24T09:21:30.547Z,15.48
2023-05-24T09:23:59.590Z,10.45
2023-05-24T09:26:32.669Z,11.52
2023-05-24T09:29:00.979Z,11.73
2023-05-24T09:31:40.763Z,12.30
2023-05-24T09:34:16.058Z,14.50
2023-05-24T09:36:47.036Z,14.93
2023-05-24T09:39:15.216Z,15.52
2023-05-24T09:41:45.899Z,10.77
2023-05-24T09:44:17.617Z,10.77
2023-05-24T09:46:46.655Z,13.82
2023-05-24T09:49:15.286Z,12.43
2023-05-24T09:51:43.556Z,14.00
2023-05-24T09:54:13.668Z,13.50
2023-05-24T09:56:42.032Z,15.23
2023-05-24T09:59:10.739Z,10.85
2023-05-24T10:01:39.173Z,10.95
2023-05-24T10:04:10.253Z,9.93
2023-05-24T10:06:40.059Z,9.55
2023-05-24T10:09:10.299Z,8.70
2023-05-24T10:11:38.625Z,10.70
2023-05-24T10:14:08.295Z,10.50
2023-05-24T10:16:39.092Z,11.65
2023-05-24T10:19:08.134Z,8.02
2023-05-24T10:21:41.033Z,8.52
2023-05-24T10:24:12.529Z,6.47
2023-05-24T10:26:43.342Z,6.97
2023-05-24T10:29:18.829Z,10.52
2023-05-24T10:31:47.832Z,8.10
2023-05-24T10:34:16.573Z,9.23
2023-05-24T10:36:46.330Z,8.88
2023-05-24T10:39:14.767Z,9.60
2023-05-24T10:41:43.737Z,12.88
2023-05-24T10:44:14.178Z,11.45
2023-05-24T10:47:09.666Z,10.57
2023-05-24T10:49:40.535Z,11.93
2023-05-24T10:52:11.187Z,10.18
2023-05-24T10:54:44.771Z,10.18
2023-05-24T10:57:25.999Z,11.05
2023-05-24T10:59:58.043Z,14.15
2023-05-24T11:02:36.442Z,10.88
2023-05-24T11:05:07.227Z,10.77
2023-05-24T11:07:46.167Z,10.85
2023-05-24T11:10:32.159Z,13.32
2023-05-24T11:13:04.905Z,12.05
2023-05-24T11:15:33.154Z,12.60
2023-05-24T11:18:10.484Z,9.40
2023-05-24T11:20:39.487Z,19.05
2023-05-24T11:23:10.104Z,10.60
2023-05-24T11:25:39.557Z,15.40
2023-05-24T11:28:12.135Z,13.75
2023-05-24T11:30:47.779Z,12.40
2023-05-24T11:33:24.417Z,12.90
2023-05-24T11:35:53.865Z,11.20
2023-05-24T11:38:24.891Z,11.52
2023-05-24T11:40:54.120Z,8.95
2023-05-24T11:43:25.926Z,11.05
2023-05-24T11:45:54.466Z,13.95
2023-05-24T11:48:22.704Z,10.13
2023-05-24T11:50:51.020Z,11.82
2023-05-24T11:53:22.237Z,10.10
2023-05-24T11:55:50.729Z,10.80
2023-05-24T11:58:25.709Z,6.68
2023-05-24T12:00:54.062Z,11.43
2023-05-24T12:03:22.674Z,13.93
2023-05-24T12:05:50.986Z,10.52
2023-05-24T12:08:19.277Z,8.93
2023-05-24T12:10:49.934Z,11.75
2023-05-24T12:13:27.973Z,10.38
2023-05-24T12:15:57.317Z,7.65
2023-05-24T12:18:27.345Z,10.43
2023-05-24T12:20:56.085Z,9.73
2023-05-24T12:23:29.400Z,7.35
2023-05-24T12:26:01.790Z,9.60
2023-05-24T12:28:39.445Z,10.68
2023-05-24T12:31:08.042Z,11.80
2023-05-24T12:33:36.693Z,9.30
2023-05-24T12:36:06.104Z,10.43
2023-05-24T12:38:34.432Z,9.13
2023-05-24T12:43:33.737Z,7.32
2023-05-24T12:46:02.536Z,7.40
2023-05-24T12:48:30.792Z,6.30
2023-05-24T12:50:59.126Z,5.68
2023-05-24T12:53:27.746Z,5.63
2023-05-24T12:55:56.965Z,5.90
2023-05-24T12:58:25.471Z,5.90
2023-05-24T13:00:53.853Z,4.40
2023-05-24T13:03:22.225Z,6.00
2023-05-24T13:05:50.669Z,6.25
2023-05-24T13:08:19.173Z,7.70
2023-05-24T13:10:47.634Z,7.30
2023-05-24T13:13:15.971Z,3.72
2023-05-24T13:15:45.456Z,7.10
2023-05-24T13:18:14.037Z,6.88
2023-05-24T13:20:42.569Z,8.15
2023-05-24T13:23:11.158Z,7.45
2023-05-24T13:25:39.357Z,9.77
2023-05-24T13:28:07.921Z,7.85
2023-05-24T13:30:36.232Z,9.82
2023-05-24T13:33:04.574Z,8.85
2023-05-24T13:35:33.053Z,8.40
2023-05-24T13:38:01.323Z,8.88
2023-05-24T13:40:29.679Z,7.78
2023-05-24T13:42:58.543Z,5.55
2023-05-24T13:45:27.167Z,8.05
2023-05-24T13:47:59.171Z,6.93
2023-05-24T13:50:27.748Z,6.82
2023-05-24T13:52:56.970Z,6.80
2023-05-24T13:55:25.943Z,5.78
2023-05-24T13:57:56.248Z,6.32
2023-05-24T14:00:25.064Z,9.48
2023-05-24T14:02:53.843Z,7.18
2023-05-24T14:05:27.362Z,5.70
2023-05-24T14:07:57.463Z,7.22
2023-05-24T14:10:26.092Z,7.65
2023-05-24T14:13:13.195Z,7.53
2023-05-24T14:15:43.223Z,8.90
2023-05-24T14:18:12.022Z,5.47
2023-05-24T14:20:41.653Z,9.25
2023-05-24T14:23:10.731Z,6.80
2023-05-24T14:25:39.160Z,6.07
2023-05-24T14:28:09.272Z,8.68
2023-05-24T14:30:38.634Z,6.40
2023-05-24T14:33:12.008Z,6.25
2023-05-24T14:35:40.754Z,8.10
2023-05-24T14:38:10.977Z,6.80
2023-05-24T14:40:41.574Z,6.80
2023-05-24T14:43:11.325Z,7.90
2023-05-24T14:45:44.532Z,8.15
2023-05-24T14:48:13.314Z,6.28
2023-05-24T14:50:42.289Z,5.88
2023-05-24T14:53:14.642Z,6.72
2023-05-24T14:55:44.507Z,6.55
2023-05-24T14:58:13.481Z,6.22
2023-05-24T15:00:43.515Z,5.68
2023-05-24T15:03:13.377Z,6.55
2023-05-24T15:05:43.441Z,8.52
2023-05-24T15:08:12.203Z,6.85
2023-05-24T15:10:41.143Z,6.78
2023-05-24T15:13:09.616Z,8.07
2023-05-24T15:15:37.900Z,5.88
2023-05-24T15:18:06.670Z,5.95
2023-05-24T15:20:36.020Z,7.25
2023-05-24T15:23:04.685Z,10.32
2023-05-24T15:25:32.947Z,7.25
2023-05-24T15:28:01.356Z,9.40
2023-05-24T15:30:29.679Z,10.90
2023-05-24T15:32:59.805Z,6.85
2023-05-24T15:35:28.518Z,8.07
2023-05-24T15:37:56.776Z,9.23
2023-05-24T15:40:25.247Z,6.03
2023-05-24T15:42:53.861Z,5.53
2023-05-24T15:45:22.268Z,7.72
2023-05-24T15:47:50.737Z,18.52
2023-05-24T15:50:25.878Z,7.68
2023-05-24T15:53:00.457Z,7.72
2023-05-24T15:55:28.760Z,7.13
2023-05-24T15:57:59.255Z,6.40
2023-05-24T16:00:27.922Z,8.20
2023-05-24T16:02:57.760Z,5.85
2023-05-24T16:05:27.739Z,9.55
2023-05-24T16:07:56.279Z,6.93
2023-05-24T16:10:24.619Z,6.63
2023-05-24T16:12:52.866Z,6.85
2023-05-24T16:15:21.080Z,7.28
2023-05-24T16:17:49.541Z,7.32
2023-05-24T16:20:17.865Z,7.28
2023-05-24T16:22:52.477Z,6.20
2023-05-24T16:27:48.619Z,8.20
2023-05-24T16:30:16.932Z,6.25
2023-05-24T16:32:46.193Z,5.75
2023-05-24T16:35:14.645Z,4.95
2023-05-24T16:37:42.961Z,6.45
2023-05-24T16:40:11.989Z,7.63
2023-05-24T16:42:40.221Z,6.38
2023-05-24T16:45:08.940Z,9.70
2023-05-24T16:47:37.525Z,6.90
2023-05-24T16:50:06.428Z,6.93
2023-05-24T16:52:34.685Z,5.00
2023-05-24T16:55:02.948Z,7.00
2023-05-24T16:57:31.204Z,5.85
2023-05-24T16:59:59.504Z,9.23
2023-05-24T17:02:28.172Z,7.18
2023-05-24T17:04:56.447Z,4.72
2023-05-24T17:07:24.775Z,7.65
2023-05-24T17:09:53.250Z,7.78
2023-05-24T17:12:24.793Z,4.68
2023-05-24T17:14:53.602Z,5.35
2023-05-24T17:17:21.960Z,6.18
2023-05-24T17:19:50.270Z,6.25
2023-05-24T17:22:18.592Z,7.80
2023-05-24T17:24:47.352Z,7.65
2023-05-24T17:27:16.446Z,8.00
2023-05-24T17:29:48.136Z,9.00
2023-05-24T17:32:16.380Z,5.60
2023-05-24T17:34:44.592Z,5.95
2023-05-24T17:37:12.832Z,5.57
2023-05-24T17:39:41.155Z,4.45
2023-05-24T17:42:09.644Z,6.47
2023-05-24T17:44:37.885Z,5.65
2023-05-24T17:47:06.479Z,5.30
2023-05-24T17:49:34.719Z,6.07
2023-05-24T17:52:02.949Z,8.55
2023-05-24T17:54:31.386Z,4.55
2023-05-24T17:56:59.609Z,7.18
2023-05-24T17:59:28.157Z,5.30
2023-05-24T18:01:56.413Z,7.22
2023-05-24T18:04:24.661Z,7.07
2023-05-24T18:06:52.892Z,6.78
2023-05-24T18:09:22.358Z,7.15
2023-05-24T18:11:50.690Z,4.88
2023-05-24T18:14:19.267Z,7.70
2023-05-24T18:16:47.615Z,5.55
2023-05-24T18:19:15.874Z,6.35
2023-05-24T18:21:44.147Z,8.38
2023-05-24T18:24:12.346Z,6.85
2023-05-24T18:26:40.570Z,5.40
2023-05-24T18:29:08.837Z,6.72
2023-05-24T18:31:37.393Z,6.10
2023-05-24T18:34:05.761Z,4.53
2023-05-24T18:36:34.148Z,6.07
2023-05-24T18:39:02.394Z,8.13
2023-05-24T18:41:30.769Z,5.68
2023-05-24T18:43:59.034Z,5.95
2023-05-24T18:46:28.605Z,6.82
2023-05-24T18:48:59.444Z,7.45
2023-05-24T18:51:27.959Z,6.30
2023-05-24T18:53:56.234Z,8.63
2023-05-24T18:56:25.118Z,6.97
2023-05-24T18:58:55.071Z,8.13
2023-05-24T19:01:23.411Z,5.63
2023-05-24T19:03:51.886Z,5.50
2023-05-24T19:06:20.142Z,8.43
2023-05-24T19:08:48.574Z,7.72
2023-05-24T19:11:16.995Z,5.40
2023-05-24T19:13:45.232Z,5.13
2023-05-24T19:16:18.149Z,6.75
2023-05-24T19:18:47.287Z,6.28
2023-05-24T19:21:15.799Z,6.10
2023-05-24T19:23:44.144Z,8.50
2023-05-24T19:26:12.721Z,5.53
2023-05-24T19:28:43.050Z,5.55
2023-05-24T19:31:11.476Z,5.03
2023-05-24T19:33:48.735Z,4.13
2023-05-24T19:36:27.530Z,4.97
2023-05-24T19:38:55.776Z,5.28
2023-05-24T19:41:24.071Z,4.43
2023-05-24T19:43:53.529Z,8.18
2023-05-24T19:46:24.452Z,6.65
2023-05-24T19:48:52.782Z,4.50
2023-05-24T19:51:21.225Z,6.13
2023-05-24T19:53:49.529Z,6.70
2023-05-24T19:56:17.831Z,5.03
2023-05-24T19:58:46.102Z,7.07
2023-05-24T20:01:14.449Z,6.07
2023-05-24T20:03:48.978Z,4.78
2023-05-24T20:06:17.752Z,4.35
2023-05-24T20:08:47.543Z,5.30
2023-05-24T20:11:15.866Z,4.70
2023-05-24T20:13:44.125Z,7.00
2023-05-24T20:16:12.425Z,5.22
2023-05-24T20:18:40.731Z,6.20
2023-05-24T20:21:08.936Z,5.55
2023-05-24T20:23:37.217Z,7.30
2023-05-24T20:26:05.739Z,4.80
2023-05-24T20:28:34.088Z,6.82
2023-05-24T20:31:02.604Z,5.80
2023-05-24T20:33:30.920Z,6.80
2023-05-24T20:35:59.693Z,7.30
2023-05-24T20:38:28.279Z,5.80
2023-05-24T20:40:56.556Z,5.28
2023-05-24T20:43:24.800Z,6.88
2023-05-24T20:45:53.239Z,5.22
2023-05-24T20:48:21.934Z,5.53
2023-05-24T20:50:50.220Z,4.45
2023-05-24T20:53:19.216Z,5.35
2023-05-24T20:55:47.501Z,8.00
2023-05-24T20:58:17.908Z,5.18
2023-05-24T21:00:46.437Z,7.07
2023-05-24T21:03:14.858Z,6.18
2023-05-24T21:05:43.529Z,7.63
2023-05-24T21:08:11.997Z,5.25
2023-05-24T21:10:40.307Z,6.03
2023-05-24T21:13:08.697Z,6.00
2023-05-24T21:15:36.942Z,6.38
2023-05-24T21:18:05.514Z,5.38
2023-05-24T21:20:33.935Z,5.68
2023-05-24T21:23:02.278Z,8.85
2023-05-24T21:25:30.543Z,5.35
2023-05-24T21:27:58.822Z,5.63
2023-05-24T21:30:27.534Z,5.03
2023-05-24T21:32:55.831Z,7.47
2023-05-24T21:35:24.108Z,6.35
2023-05-24T21:37:53.401Z,5.97
2023-05-24T21:40:21.743Z,8.15
2023-05-24T21:42:49.963Z,5.60
2023-05-24T21:45:18.296Z,7.85
2023-05-24T21:47:46.609Z,5.53
2023-05-24T21:50:15.009Z,7.53
2023-05-24T21:52:43.442Z,4.95
2023-05-24T21:55:11.731Z,5.65
2023-05-24T21:57:40.128Z,7.47
2023-05-24T22:00:09.734Z,4.97
2023-05-24T22:02:38.419Z,6.13
2023-05-24T22:05:07.137Z,6.78
2023-05-24T22:07:35.472Z,5.13
2023-05-24T22:10:04.281Z,5.65
2023-05-24T22:12:32.531Z,6.50
2023-05-24T22:15:02.631Z,4.05
2023-05-24T22:17:33.473Z,6.10
2023-05-24T22:20:07.682Z,5.78
2023-05-24T22:25:05.855Z,3.92
2023-05-24T22:27:36.703Z,5.65
2023-05-24T22:30:05.105Z,5.28
2023-05-24T22:32:33.405Z,7.13
2023-05-24T22:35:01.731Z,4.80
2023-05-24T22:37:29.976Z,5.47
2023-05-24T22:39:58.289Z,6.72
2023-05-24T22:42:26.564Z,5.38
2023-05-24T22:44:54.864Z,4.00
2023-05-24T22:47:24.755Z,6.07
2023-05-24T22:49:54.830Z,4.25
2023-05-24T22:52:25.414Z,6.70
2023-05-24T22:54:53.849Z,4.30
2023-05-24T22:57:23.418Z,4.38
2023-05-24T22:59:52.010Z,4.75
2023-05-24T23:02:20.421Z,5.63
2023-05-24T23:04:49.190Z,5.35
2023-05-24T23:07:17.583Z,7.20
2023-05-24T23:09:45.935Z,8.13
2023-05-24T23:12:15.009Z,9.10
2023-05-24T23:14:47.155Z,7.63
2023-05-24T23:17:15.756Z,9.05
2023-05-24T23:19:44.629Z,13.13
2023-05-24T23:22:14.203Z,8.52
2023-05-24T23:24:43.208Z,11.82
2023-05-24T23:27:12.141Z,9.50
2023-05-24T23:29:40.445Z,11.25
2023-05-24T23:32:10.116Z,12.63
2023-05-24T23:34:38.774Z,10.50
2023-05-24T23:37:08.643Z,13.18
2023-05-24T23:39:36.951Z,15.18
2023-05-24T23:42:05.525Z,17.58
2023-05-24T23:44:33.905Z,16.38
2023-05-24T23:47:03.054Z,18.05
2023-05-24T23:49:31.569Z,17.17
2023-05-24T23:51:59.967Z,14.95
2023-05-24T23:54:28.631Z,17.55
2023-05-24T23:56:56.968Z,16.63
2023-05-24T23:59:25.319Z,14.00
